sensor_id;sensor_type;location;lat;lon;timestamp;P1;durP1;ratioP1;P2;durP2;ratioP2
36923;SDS011;22841;50.252;18.688;2023-09-19T00:00:20;21.05;;;16.70;;
36923;SDS011;22841;50.252;18.688;2023-09-19T00:02:57;21.92;;;16.05;;
36923;SDS011;22841;50.252;18.688;2023-09-19T00:05:27;23.15;;;17.20;;
36923;SDS011;22841;50.252;18.688;2023-09-19T00:07:55;21.00;;;16.77;;
36923;SDS011;22841;50.252;18.688;2023-09-19T00:10:26;21.88;;;16.45;;
36923;SDS011;22841;50.252;18.688;2023-09-19T00:12:56;21.33;;;17.33;;
36923;SDS011;22841;50.252;18.688;2023-09-19T00:15:35;22.85;;;16.30;;
36923;SDS011;22841;50.252;18.688;2023-09-19T00:18:06;27.52;;;17.98;;
36923;SDS011;22841;50.252;18.688;2023-09-19T00:20:36;20.63;;;16.02;;
36923;SDS011;22841;50.252;18.688;2023-09-19T00:23:04;25.38;;;16.92;;
36923;SDS011;22841;50.252;18.688;2023-09-19T00:25:37;25.17;;;17.38;;
36923;SDS011;22841;50.252;18.688;2023-09-19T00:28:04;21.25;;;17.23;;
36923;SDS011;22841;50.252;18.688;2023-09-19T00:30:31;22.02;;;17.52;;
36923;SDS011;22841;50.252;18.688;2023-09-19T00:32:58;20.40;;;16.75;;
36923;SDS011;22841;50.252;18.688;2023-09-19T00:35:26;18.95;;;15.40;;
36923;SDS011;22841;50.252;18.688;2023-09-19T00:37:53;21.50;;;15.85;;
36923;SDS011;22841;50.252;18.688;2023-09-19T00:40:21;20.92;;;16.85;;
36923;SDS011;22841;50.252;18.688;2023-09-19T00:42:47;24.30;;;17.17;;
36923;SDS011;22841;50.252;18.688;2023-09-19T00:45:15;23.17;;;17.05;;
36923;SDS011;22841;50.252;18.688;2023-09-19T00:47:49;23.73;;;16.98;;
36923;SDS011;22841;50.252;18.688;2023-09-19T00:50:17;22.85;;;17.42;;
36923;SDS011;22841;50.252;18.688;2023-09-19T00:52:46;22.48;;;16.70;;
36923;SDS011;22841;50.252;18.688;2023-09-19T00:55:15;21.77;;;16.75;;
36923;SDS011;22841;50.252;18.688;2023-09-19T00:57:45;23.23;;;16.90;;
36923;SDS011;22841;50.252;18.688;2023-09-19T01:00:12;19.83;;;16.60;;
36923;SDS011;22841;50.252;18.688;2023-09-19T01:02:42;21.05;;;16.42;;
36923;SDS011;22841;50.252;18.688;2023-09-19T01:05:09;25.17;;;17.27;;
36923;SDS011;22841;50.252;18.688;2023-09-19T01:07:35;21.85;;;17.83;;
36923;SDS011;22841;50.252;18.688;2023-09-19T01:10:06;22.52;;;17.38;;
36923;SDS011;22841;50.252;18.688;2023-09-19T01:12:54;25.75;;;17.58;;
36923;SDS011;22841;50.252;18.688;2023-09-19T01:20:31;19.75;;;16.17;;
36923;SDS011;22841;50.252;18.688;2023-09-19T01:23:28;25.33;;;16.40;;
36923;SDS011;22841;50.252;18.688;2023-09-19T01:28:54;23.85;;;17.25;;
36923;SDS011;22841;50.252;18.688;2023-09-19T01:31:28;23.55;;;15.95;;
36923;SDS011;22841;50.252;18.688;2023-09-19T01:34:01;25.05;;;17.10;;
36923;SDS011;22841;50.252;18.688;2023-09-19T01:36:33;21.92;;;16.88;;
36923;SDS011;22841;50.252;18.688;2023-09-19T01:39:07;24.30;;;16.88;;
36923;SDS011;22841;50.252;18.688;2023-09-19T01:44:05;24.48;;;17.65;;
36923;SDS011;22841;50.252;18.688;2023-09-19T01:46:35;20.83;;;16.77;;
36923;SDS011;22841;50.252;18.688;2023-09-19T01:49:26;19.48;;;16.50;;
36923;SDS011;22841;50.252;18.688;2023-09-19T01:52:05;23.20;;;16.77;;
36923;SDS011;22841;50.252;18.688;2023-09-19T01:54:49;20.35;;;17.00;;
36923;SDS011;22841;50.252;18.688;2023-09-19T01:57:20;24.67;;;18.02;;
36923;SDS011;22841;50.252;18.688;2023-09-19T01:59:52;24.17;;;16.60;;
36923;SDS011;22841;50.252;18.688;2023-09-19T02:02:22;23.25;;;16.83;;
36923;SDS011;22841;50.252;18.688;2023-09-19T02:04:50;21.83;;;17.15;;
36923;SDS011;22841;50.252;18.688;2023-09-19T02:07:16;25.63;;;17.40;;
36923;SDS011;22841;50.252;18.688;2023-09-19T02:09:42;28.15;;;17.02;;
36923;SDS011;22841;50.252;18.688;2023-09-19T02:12:09;22.35;;;16.90;;
36923;SDS011;22841;50.252;18.688;2023-09-19T02:14:35;20.48;;;16.95;;
36923;SDS011;22841;50.252;18.688;2023-09-19T02:17:02;22.23;;;16.60;;
36923;SDS011;22841;50.252;18.688;2023-09-19T02:19:32;24.07;;;17.77;;
36923;SDS011;22841;50.252;18.688;2023-09-19T02:21:59;18.42;;;15.73;;
36923;SDS011;22841;50.252;18.688;2023-09-19T02:24:28;23.35;;;17.42;;
36923;SDS011;22841;50.252;18.688;2023-09-19T02:26:54;21.58;;;16.67;;
36923;SDS011;22841;50.252;18.688;2023-09-19T02:29:21;21.67;;;16.42;;
36923;SDS011;22841;50.252;18.688;2023-09-19T02:31:50;23.38;;;16.30;;
36923;SDS011;22841;50.252;18.688;2023-09-19T02:34:16;23.25;;;15.98;;
36923;SDS011;22841;50.252;18.688;2023-09-19T02:36:42;24.10;;;16.60;;
36923;SDS011;22841;50.252;18.688;2023-09-19T02:39:09;20.92;;;16.65;;
36923;SDS011;22841;50.252;18.688;2023-09-19T02:41:36;24.52;;;16.77;;
36923;SDS011;22841;50.252;18.688;2023-09-19T02:44:03;24.27;;;16.58;;
36923;SDS011;22841;50.252;18.688;2023-09-19T02:46:32;22.75;;;16.58;;
36923;SDS011;22841;50.252;18.688;2023-09-19T02:49:02;26.02;;;16.60;;
36923;SDS011;22841;50.252;18.688;2023-09-19T02:51:32;22.33;;;17.73;;
36923;SDS011;22841;50.252;18.688;2023-09-19T02:54:01;31.13;;;17.52;;
36923;SDS011;22841;50.252;18.688;2023-09-19T02:56:28;26.75;;;17.23;;
36923;SDS011;22841;50.252;18.688;2023-09-19T02:58:56;24.08;;;16.95;;
36923;SDS011;22841;50.252;18.688;2023-09-19T03:01:23;25.58;;;18.75;;
36923;SDS011;22841;50.252;18.688;2023-09-19T03:03:49;32.25;;;18.67;;
36923;SDS011;22841;50.252;18.688;2023-09-19T03:06:15;24.88;;;18.23;;
36923;SDS011;22841;50.252;18.688;2023-09-19T03:08:45;26.42;;;18.67;;
36923;SDS011;22841;50.252;18.688;2023-09-19T03:11:12;23.77;;;18.08;;
36923;SDS011;22841;50.252;18.688;2023-09-19T03:13:40;25.58;;;18.17;;
36923;SDS011;22841;50.252;18.688;2023-09-19T03:16:08;30.88;;;19.23;;
36923;SDS011;22841;50.252;18.688;2023-09-19T03:18:34;28.63;;;18.50;;
36923;SDS011;22841;50.252;18.688;2023-09-19T03:21:00;26.13;;;18.80;;
36923;SDS011;22841;50.252;18.688;2023-09-19T03:23:27;27.42;;;20.52;;
36923;SDS011;22841;50.252;18.688;2023-09-19T03:25:54;26.73;;;19.02;;
36923;SDS011;22841;50.252;18.688;2023-09-19T03:28:21;24.58;;;18.73;;
36923;SDS011;22841;50.252;18.688;2023-09-19T03:31:04;25.38;;;19.60;;
36923;SDS011;22841;50.252;18.688;2023-09-19T03:33:32;32.72;;;20.58;;
36923;SDS011;22841;50.252;18.688;2023-09-19T03:35:59;26.27;;;19.95;;
36923;SDS011;22841;50.252;18.688;2023-09-19T03:38:30;32.27;;;19.67;;
36923;SDS011;22841;50.252;18.688;2023-09-19T03:40:57;25.65;;;20.10;;
36923;SDS011;22841;50.252;18.688;2023-09-19T03:43:24;29.33;;;19.48;;
36923;SDS011;22841;50.252;18.688;2023-09-19T03:45:50;25.13;;;19.65;;
36923;SDS011;22841;50.252;18.688;2023-09-19T03:48:17;24.88;;;19.52;;
36923;SDS011;22841;50.252;18.688;2023-09-19T03:50:43;27.45;;;19.83;;
36923;SDS011;22841;50.252;18.688;2023-09-19T03:53:12;29.85;;;20.38;;
36923;SDS011;22841;50.252;18.688;2023-09-19T03:55:38;24.02;;;18.67;;
36923;SDS011;22841;50.252;18.688;2023-09-19T03:58:06;23.48;;;17.85;;
36923;SDS011;22841;50.252;18.688;2023-09-19T04:00:33;28.52;;;19.25;;
36923;SDS011;22841;50.252;18.688;2023-09-19T04:03:00;25.35;;;19.55;;
36923;SDS011;22841;50.252;18.688;2023-09-19T04:05:31;28.88;;;20.52;;
36923;SDS011;22841;50.252;18.688;2023-09-19T04:07:57;28.30;;;18.77;;
36923;SDS011;22841;50.252;18.688;2023-09-19T04:10:23;27.10;;;20.55;;
36923;SDS011;22841;50.252;18.688;2023-09-19T04:12:55;23.85;;;19.42;;
36923;SDS011;22841;50.252;18.688;2023-09-19T04:15:22;24.27;;;18.92;;
36923;SDS011;22841;50.252;18.688;2023-09-19T04:17:49;25.88;;;19.73;;
36923;SDS011;22841;50.252;18.688;2023-09-19T04:20:16;28.40;;;19.80;;
36923;SDS011;22841;50.252;18.688;2023-09-19T04:22:48;26.38;;;20.55;;
36923;SDS011;22841;50.252;18.688;2023-09-19T04:25:14;28.60;;;20.55;;
36923;SDS011;22841;50.252;18.688;2023-09-19T04:27:40;30.90;;;20.75;;
36923;SDS011;22841;50.252;18.688;2023-09-19T04:30:07;29.92;;;20.00;;
36923;SDS011;22841;50.252;18.688;2023-09-19T04:32:40;30.13;;;19.92;;
36923;SDS011;22841;50.252;18.688;2023-09-19T04:35:07;27.92;;;19.00;;
36923;SDS011;22841;50.252;18.688;2023-09-19T04:37:36;29.40;;;19.45;;
36923;SDS011;22841;50.252;18.688;2023-09-19T04:40:07;28.30;;;20.13;;
36923;SDS011;22841;50.252;18.688;2023-09-19T04:42:41;29.35;;;19.05;;
36923;SDS011;22841;50.252;18.688;2023-09-19T04:45:07;27.33;;;19.85;;
36923;SDS011;22841;50.252;18.688;2023-09-19T04:47:36;27.95;;;18.77;;
36923;SDS011;22841;50.252;18.688;2023-09-19T04:50:05;29.58;;;19.60;;
36923;SDS011;22841;50.252;18.688;2023-09-19T04:52:33;27.25;;;20.33;;
36923;SDS011;22841;50.252;18.688;2023-09-19T04:55:00;32.92;;;20.77;;
36923;SDS011;22841;50.252;18.688;2023-09-19T04:57:27;31.52;;;20.70;;
36923;SDS011;22841;50.252;18.688;2023-09-19T04:59:53;28.90;;;20.15;;
36923;SDS011;22841;50.252;18.688;2023-09-19T05:02:19;31.40;;;19.63;;
36923;SDS011;22841;50.252;18.688;2023-09-19T05:04:45;27.48;;;20.83;;
36923;SDS011;22841;50.252;18.688;2023-09-19T05:07:12;29.45;;;20.83;;
36923;SDS011;22841;50.252;18.688;2023-09-19T05:09:38;27.00;;;20.00;;
36923;SDS011;22841;50.252;18.688;2023-09-19T05:12:04;25.75;;;19.65;;
36923;SDS011;22841;50.252;18.688;2023-09-19T05:14:31;27.88;;;20.15;;
36923;SDS011;22841;50.252;18.688;2023-09-19T05:16:57;26.75;;;18.55;;
36923;SDS011;22841;50.252;18.688;2023-09-19T05:19:23;28.25;;;17.42;;
36923;SDS011;22841;50.252;18.688;2023-09-19T05:21:49;23.27;;;14.85;;
36923;SDS011;22841;50.252;18.688;2023-09-19T05:24:15;19.75;;;13.88;;
36923;SDS011;22841;50.252;18.688;2023-09-19T05:26:42;20.38;;;15.18;;
36923;SDS011;22841;50.252;18.688;2023-09-19T05:29:08;28.30;;;15.32;;
36923;SDS011;22841;50.252;18.688;2023-09-19T05:31:34;20.50;;;12.40;;
36923;SDS011;22841;50.252;18.688;2023-09-19T05:34:04;24.63;;;13.63;;
36923;SDS011;22841;50.252;18.688;2023-09-19T05:36:31;20.25;;;12.43;;
36923;SDS011;22841;50.252;18.688;2023-09-19T05:38:59;14.30;;;11.43;;
36923;SDS011;22841;50.252;18.688;2023-09-19T05:41:25;20.55;;;11.20;;
36923;SDS011;22841;50.252;18.688;2023-09-19T05:43:51;20.70;;;11.45;;
36923;SDS011;22841;50.252;18.688;2023-09-19T05:46:17;17.10;;;11.57;;
36923;SDS011;22841;50.252;18.688;2023-09-19T05:48:43;24.55;;;11.80;;
36923;SDS011;22841;50.252;18.688;2023-09-19T05:51:09;19.42;;;11.32;;
36923;SDS011;22841;50.252;18.688;2023-09-19T05:53:35;15.52;;;11.27;;
36923;SDS011;22841;50.252;18.688;2023-09-19T05:56:02;19.05;;;11.40;;
36923;SDS011;22841;50.252;18.688;2023-09-19T05:58:28;15.30;;;10.23;;
36923;SDS011;22841;50.252;18.688;2023-09-19T06:00:54;16.45;;;9.68;;
36923;SDS011;22841;50.252;18.688;2023-09-19T06:03:21;13.77;;;8.60;;
36923;SDS011;22841;50.252;18.688;2023-09-19T06:05:47;20.00;;;8.55;;
36923;SDS011;22841;50.252;18.688;2023-09-19T06:08:15;14.52;;;8.40;;
36923;SDS011;22841;50.252;18.688;2023-09-19T06:10:41;16.17;;;7.95;;
36923;SDS011;22841;50.252;18.688;2023-09-19T06:13:07;14.13;;;7.32;;
36923;SDS011;22841;50.252;18.688;2023-09-19T06:15:35;12.70;;;6.22;;
36923;SDS011;22841;50.252;18.688;2023-09-19T06:18:02;9.13;;;5.68;;
36923;SDS011;22841;50.252;18.688;2023-09-19T06:20:30;10.70;;;5.70;;
36923;SDS011;22841;50.252;18.688;2023-09-19T06:22:56;9.07;;;5.97;;
36923;SDS011;22841;50.252;18.688;2023-09-19T06:25:23;13.45;;;5.22;;
36923;SDS011;22841;50.252;18.688;2023-09-19T06:27:49;11.15;;;6.30;;
36923;SDS011;22841;50.252;18.688;2023-09-19T06:30:20;17.00;;;7.77;;
36923;SDS011;22841;50.252;18.688;2023-09-19T06:32:49;14.05;;;8.23;;
36923;SDS011;22841;50.252;18.688;2023-09-19T06:35:20;15.82;;;10.18;;
36923;SDS011;22841;50.252;18.688;2023-09-19T06:37:47;11.98;;;7.80;;
36923;SDS011;22841;50.252;18.688;2023-09-19T06:40:13;11.30;;;8.52;;
36923;SDS011;22841;50.252;18.688;2023-09-19T06:42:43;14.45;;;7.57;;
36923;SDS011;22841;50.252;18.688;2023-09-19T06:45:11;14.23;;;7.60;;
36923;SDS011;22841;50.252;18.688;2023-09-19T06:47:47;9.30;;;6.65;;
36923;SDS011;22841;50.252;18.688;2023-09-19T06:50:20;11.85;;;7.03;;
36923;SDS011;22841;50.252;18.688;2023-09-19T06:52:51;12.90;;;6.00;;
36923;SDS011;22841;50.252;18.688;2023-09-19T06:55:19;10.68;;;5.65;;
36923;SDS011;22841;50.252;18.688;2023-09-19T06:57:49;9.35;;;6.28;;
36923;SDS011;22841;50.252;18.688;2023-09-19T07:00:15;8.48;;;5.57;;
36923;SDS011;22841;50.252;18.688;2023-09-19T07:02:54;11.30;;;6.00;;
36923;SDS011;22841;50.252;18.688;2023-09-19T07:05:21;14.02;;;5.57;;
36923;SDS011;22841;50.252;18.688;2023-09-19T07:07:47;8.07;;;5.13;;
36923;SDS011;22841;50.252;18.688;2023-09-19T07:10:13;14.68;;;5.40;;
36923;SDS011;22841;50.252;18.688;2023-09-19T07:12:39;11.25;;;5.45;;
36923;SDS011;22841;50.252;18.688;2023-09-19T07:15:07;9.38;;;4.90;;
36923;SDS011;22841;50.252;18.688;2023-09-19T07:17:33;14.63;;;5.15;;
36923;SDS011;22841;50.252;18.688;2023-09-19T07:20:00;10.02;;;4.88;;
36923;SDS011;22841;50.252;18.688;2023-09-19T07:22:26;8.68;;;4.93;;
36923;SDS011;22841;50.252;18.688;2023-09-19T07:24:52;12.48;;;5.80;;
36923;SDS011;22841;50.252;18.688;2023-09-19T07:27:18;12.70;;;5.45;;
36923;SDS011;22841;50.252;18.688;2023-09-19T07:29:45;12.68;;;5.00;;
36923;SDS011;22841;50.252;18.688;2023-09-19T07:32:11;8.25;;;5.15;;
36923;SDS011;22841;50.252;18.688;2023-09-19T07:34:37;9.70;;;4.80;;
36923;SDS011;22841;50.252;18.688;2023-09-19T07:37:06;12.02;;;5.65;;
36923;SDS011;22841;50.252;18.688;2023-09-19T07:39:32;10.70;;;4.50;;
36923;SDS011;22841;50.252;18.688;2023-09-19T07:41:59;13.75;;;5.13;;
36923;SDS011;22841;50.252;18.688;2023-09-19T07:44:25;11.05;;;5.47;;
36923;SDS011;22841;50.252;18.688;2023-09-19T07:46:51;5.47;;;4.53;;
36923;SDS011;22841;50.252;18.688;2023-09-19T07:49:17;9.70;;;4.53;;
36923;SDS011;22841;50.252;18.688;2023-09-19T07:51:44;8.30;;;4.60;;
36923;SDS011;22841;50.252;18.688;2023-09-19T07:54:12;10.25;;;4.90;;
36923;SDS011;22841;50.252;18.688;2023-09-19T07:56:38;11.85;;;4.50;;
36923;SDS011;22841;50.252;18.688;2023-09-19T07:59:04;5.07;;;4.35;;
36923;SDS011;22841;50.252;18.688;2023-09-19T08:01:30;5.50;;;4.65;;
36923;SDS011;22841;50.252;18.688;2023-09-19T08:03:58;8.55;;;4.65;;
36923;SDS011;22841;50.252;18.688;2023-09-19T08:06:24;7.03;;;4.95;;
36923;SDS011;22841;50.252;18.688;2023-09-19T08:08:52;8.45;;;4.90;;
36923;SDS011;22841;50.252;18.688;2023-09-19T08:11:22;6.97;;;5.43;;
36923;SDS011;22841;50.252;18.688;2023-09-19T08:13:50;8.05;;;6.10;;
36923;SDS011;22841;50.252;18.688;2023-09-19T08:16:16;10.60;;;6.43;;
36923;SDS011;22841;50.252;18.688;2023-09-19T08:18:46;9.57;;;6.80;;
36923;SDS011;22841;50.252;18.688;2023-09-19T08:21:13;14.82;;;6.60;;
36923;SDS011;22841;50.252;18.688;2023-09-19T08:23:41;12.98;;;6.50;;
36923;SDS011;22841;50.252;18.688;2023-09-19T08:26:07;11.32;;;5.90;;
36923;SDS011;22841;50.252;18.688;2023-09-19T08:28:34;12.27;;;6.47;;
36923;SDS011;22841;50.252;18.688;2023-09-19T08:31:01;9.07;;;5.78;;
36923;SDS011;22841;50.252;18.688;2023-09-19T08:33:29;8.77;;;6.20;;
36923;SDS011;22841;50.252;18.688;2023-09-19T08:35:57;8.68;;;5.45;;
36923;SDS011;22841;50.252;18.688;2023-09-19T08:38:23;8.85;;;5.47;;
36923;SDS011;22841;50.252;18.688;2023-09-19T08:40:49;8.20;;;5.80;;
36923;SDS011;22841;50.252;18.688;2023-09-19T08:43:15;11.13;;;5.25;;
36923;SDS011;22841;50.252;18.688;2023-09-19T08:45:41;7.65;;;5.45;;
36923;SDS011;22841;50.252;18.688;2023-09-19T08:50:43;8.50;;;5.47;;
36923;SDS011;22841;50.252;18.688;2023-09-19T08:53:16;7.78;;;5.30;;
36923;SDS011;22841;50.252;18.688;2023-09-19T08:55:49;7.45;;;5.22;;
36923;SDS011;22841;50.252;18.688;2023-09-19T08:58:19;10.73;;;5.05;;
36923;SDS011;22841;50.252;18.688;2023-09-19T09:00:47;5.22;;;4.72;;
36923;SDS011;22841;50.252;18.688;2023-09-19T09:03:16;7.00;;;4.35;;
36923;SDS011;22841;50.252;18.688;2023-09-19T09:05:44;9.35;;;4.82;;
36923;SDS011;22841;50.252;18.688;2023-09-19T09:08:12;10.50;;;4.97;;
36923;SDS011;22841;50.252;18.688;2023-09-19T09:10:39;9.82;;;5.13;;
36923;SDS011;22841;50.252;18.688;2023-09-19T09:13:08;7.30;;;4.32;;
36923;SDS011;22841;50.252;18.688;2023-09-19T09:15:35;7.95;;;4.53;;
36923;SDS011;22841;50.252;18.688;2023-09-19T09:18:03;9.02;;;5.15;;
36923;SDS011;22841;50.252;18.688;2023-09-19T09:20:30;6.30;;;3.92;;
36923;SDS011;22841;50.252;18.688;2023-09-19T09:22:56;9.50;;;3.88;;
36923;SDS011;22841;50.252;18.688;2023-09-19T09:28:35;5.95;;;3.63;;
36923;SDS011;22841;50.252;18.688;2023-09-19T09:31:04;6.20;;;3.20;;
36923;SDS011;22841;50.252;18.688;2023-09-19T09:33:35;6.53;;;4.03;;
36923;SDS011;22841;50.252;18.688;2023-09-19T09:36:02;7.13;;;4.50;;
36923;SDS011;22841;50.252;18.688;2023-09-19T09:38:30;7.57;;;4.28;;
36923;SDS011;22841;50.252;18.688;2023-09-19T09:41:09;16.27;;;3.83;;
36923;SDS011;22841;50.252;18.688;2023-09-19T09:43:37;5.88;;;3.33;;
36923;SDS011;22841;50.252;18.688;2023-09-19T09:46:15;7.38;;;4.03;;
36923;SDS011;22841;50.252;18.688;2023-09-19T09:51:51;8.10;;;5.00;;
36923;SDS011;22841;50.252;18.688;2023-09-19T09:54:59;11.23;;;5.18;;
36923;SDS011;22841;50.252;18.688;2023-09-19T09:57:30;9.40;;;6.50;;
36923;SDS011;22841;50.252;18.688;2023-09-19T09:59:57;9.52;;;5.97;;
36923;SDS011;22841;50.252;18.688;2023-09-19T10:02:41;13.02;;;6.60;;
36923;SDS011;22841;50.252;18.688;2023-09-19T10:05:11;14.55;;;6.90;;
36923;SDS011;22841;50.252;18.688;2023-09-19T10:07:54;13.05;;;6.68;;
36923;SDS011;22841;50.252;18.688;2023-09-19T10:10:30;10.15;;;7.05;;
36923;SDS011;22841;50.252;18.688;2023-09-19T10:13:21;9.43;;;5.33;;
36923;SDS011;22841;50.252;18.688;2023-09-19T10:15:52;12.48;;;5.30;;
36923;SDS011;22841;50.252;18.688;2023-09-19T10:18:27;7.10;;;5.07;;
36923;SDS011;22841;50.252;18.688;2023-09-19T10:20:58;6.68;;;4.82;;
36923;SDS011;22841;50.252;18.688;2023-09-19T10:23:27;7.10;;;4.38;;
36923;SDS011;22841;50.252;18.688;2023-09-19T10:25:56;6.63;;;4.80;;
36923;SDS011;22841;50.252;18.688;2023-09-19T10:28:24;6.07;;;5.32;;
36923;SDS011;22841;50.252;18.688;2023-09-19T10:30:56;11.40;;;5.65;;
36923;SDS011;22841;50.252;18.688;2023-09-19T10:33:23;9.68;;;4.53;;
36923;SDS011;22841;50.252;18.688;2023-09-19T10:40:55;7.00;;;3.75;;
36923;SDS011;22841;50.252;18.688;2023-09-19T10:43:26;6.05;;;3.80;;
36923;SDS011;22841;50.252;18.688;2023-09-19T10:45:57;4.80;;;3.88;;
36923;SDS011;22841;50.252;18.688;2023-09-19T10:48:29;4.30;;;3.50;;
36923;SDS011;22841;50.252;18.688;2023-09-19T10:53:31;7.30;;;4.03;;
36923;SDS011;22841;50.252;18.688;2023-09-19T10:56:11;6.05;;;4.45;;
36923;SDS011;22841;50.252;18.688;2023-09-19T10:58:51;4.95;;;4.22;;
36923;SDS011;22841;50.252;18.688;2023-09-19T11:01:17;6.95;;;3.95;;
36923;SDS011;22841;50.252;18.688;2023-09-19T11:03:43;5.82;;;4.75;;
36923;SDS011;22841;50.252;18.688;2023-09-19T11:06:14;4.57;;;4.10;;
36923;SDS011;22841;50.252;18.688;2023-09-19T11:09:01;5.95;;;4.13;;
36923;SDS011;22841;50.252;18.688;2023-09-19T11:30:50;6.75;;;4.53;;
36923;SDS011;22841;50.252;18.688;2023-09-19T11:33:24;6.53;;;4.50;;
36923;SDS011;22841;50.252;18.688;2023-09-19T11:43:51;7.28;;;4.40;;
36923;SDS011;22841;50.252;18.688;2023-09-19T11:46:33;7.75;;;4.00;;
36923;SDS011;22841;50.252;18.688;2023-09-19T11:49:05;6.13;;;4.55;;
36923;SDS011;22841;50.252;18.688;2023-09-19T11:51:39;7.78;;;4.45;;
36923;SDS011;22841;50.252;18.688;2023-09-19T11:54:10;8.07;;;5.72;;
36923;SDS011;22841;50.252;18.688;2023-09-19T11:56:49;8.77;;;5.60;;
36923;SDS011;22841;50.252;18.688;2023-09-19T11:59:23;11.18;;;5.88;;
36923;SDS011;22841;50.252;18.688;2023-09-19T12:01:54;13.30;;;7.28;;
36923;SDS011;22841;50.252;18.688;2023-09-19T12:04:39;7.57;;;4.07;;
36923;SDS011;22841;50.252;18.688;2023-09-19T12:07:12;4.60;;;4.03;;
36923;SDS011;22841;50.252;18.688;2023-09-19T12:09:42;7.30;;;4.70;;
36923;SDS011;22841;50.252;18.688;2023-09-19T12:12:33;4.75;;;4.00;;
36923;SDS011;22841;50.252;18.688;2023-09-19T12:14:59;6.60;;;3.95;;
36923;SDS011;22841;50.252;18.688;2023-09-19T12:17:37;9.82;;;4.95;;
36923;SDS011;22841;50.252;18.688;2023-09-19T12:20:06;9.88;;;5.47;;
36923;SDS011;22841;50.252;18.688;2023-09-19T12:22:40;11.32;;;6.55;;
36923;SDS011;22841;50.252;18.688;2023-09-19T12:25:09;9.40;;;5.40;;
36923;SDS011;22841;50.252;18.688;2023-09-19T12:27:43;12.52;;;6.82;;
36923;SDS011;22841;50.252;18.688;2023-09-19T12:30:26;8.90;;;5.25;;
36923;SDS011;22841;50.252;18.688;2023-09-19T12:32:53;10.32;;;5.90;;
36923;SDS011;22841;50.252;18.688;2023-09-19T12:35:30;10.60;;;5.93;;
36923;SDS011;22841;50.252;18.688;2023-09-19T12:38:00;8.15;;;4.68;;
36923;SDS011;22841;50.252;18.688;2023-09-19T12:40:28;7.68;;;4.93;;
36923;SDS011;22841;50.252;18.688;2023-09-19T12:42:58;6.22;;;5.05;;
36923;SDS011;22841;50.252;18.688;2023-09-19T12:45:28;8.50;;;5.20;;
36923;SDS011;22841;50.252;18.688;2023-09-19T12:51:04;10.13;;;4.43;;
36923;SDS011;22841;50.252;18.688;2023-09-19T12:53:41;8.60;;;5.28;;
36923;SDS011;22841;50.252;18.688;2023-09-19T12:56:15;9.63;;;5.40;;
36923;SDS011;22841;50.252;18.688;2023-09-19T13:01:25;10.75;;;5.25;;
36923;SDS011;22841;50.252;18.688;2023-09-19T13:06:45;8.77;;;3.80;;
36923;SDS011;22841;50.252;18.688;2023-09-19T13:09:14;9.18;;;3.97;;
36923;SDS011;22841;50.252;18.688;2023-09-19T13:11:41;8.85;;;4.05;;
36923;SDS011;22841;50.252;18.688;2023-09-19T13:17:00;10.93;;;5.07;;
36923;SDS011;22841;50.252;18.688;2023-09-19T13:19:51;7.85;;;4.03;;
36923;SDS011;22841;50.252;18.688;2023-09-19T13:22:41;6.45;;;4.32;;
36923;SDS011;22841;50.252;18.688;2023-09-19T13:25:14;8.88;;;5.72;;
36923;SDS011;22841;50.252;18.688;2023-09-19T13:27:43;8.68;;;5.82;;
36923;SDS011;22841;50.252;18.688;2023-09-19T13:30:13;6.28;;;5.57;;
36923;SDS011;22841;50.252;18.688;2023-09-19T13:32:40;6.47;;;5.50;;
36923;SDS011;22841;50.252;18.688;2023-09-19T13:35:08;6.25;;;5.55;;
36923;SDS011;22841;50.252;18.688;2023-09-19T13:37:35;8.63;;;4.63;;
36923;SDS011;22841;50.252;18.688;2023-09-19T13:40:04;3.30;;;3.03;;
36923;SDS011;22841;50.252;18.688;2023-09-19T13:42:31;6.93;;;3.40;;
36923;SDS011;22841;50.252;18.688;2023-09-19T13:44:57;4.18;;;2.72;;
36923;SDS011;22841;50.252;18.688;2023-09-19T13:47:23;3.75;;;2.60;;
36923;SDS011;22841;50.252;18.688;2023-09-19T13:49:52;6.97;;;2.70;;
36923;SDS011;22841;50.252;18.688;2023-09-19T13:52:19;3.53;;;2.90;;
36923;SDS011;22841;50.252;18.688;2023-09-19T13:54:45;4.70;;;2.53;;
36923;SDS011;22841;50.252;18.688;2023-09-19T13:57:11;4.43;;;2.55;;
36923;SDS011;22841;50.252;18.688;2023-09-19T13:59:38;3.60;;;2.28;;
36923;SDS011;22841;50.252;18.688;2023-09-19T14:02:04;2.95;;;2.35;;
36923;SDS011;22841;50.252;18.688;2023-09-19T14:04:31;2.92;;;2.25;;
36923;SDS011;22841;50.252;18.688;2023-09-19T14:06:57;3.80;;;2.58;;
36923;SDS011;22841;50.252;18.688;2023-09-19T14:09:23;3.20;;;2.80;;
36923;SDS011;22841;50.252;18.688;2023-09-19T14:11:50;4.85;;;2.75;;
36923;SDS011;22841;50.252;18.688;2023-09-19T14:14:18;4.63;;;2.70;;
36923;SDS011;22841;50.252;18.688;2023-09-19T14:16:46;4.55;;;3.10;;
36923;SDS011;22841;50.252;18.688;2023-09-19T14:19:15;5.18;;;3.42;;
36923;SDS011;22841;50.252;18.688;2023-09-19T14:21:42;5.70;;;3.58;;
36923;SDS011;22841;50.252;18.688;2023-09-19T14:24:08;12.02;;;6.32;;
36923;SDS011;22841;50.252;18.688;2023-09-19T14:26:35;7.05;;;4.72;;
36923;SDS011;22841;50.252;18.688;2023-09-19T14:29:01;7.18;;;4.18;;
36923;SDS011;22841;50.252;18.688;2023-09-19T14:31:28;5.43;;;3.20;;
36923;SDS011;22841;50.252;18.688;2023-09-19T14:33:54;3.63;;;2.65;;
36923;SDS011;22841;50.252;18.688;2023-09-19T14:36:22;4.57;;;2.80;;
36923;SDS011;22841;50.252;18.688;2023-09-19T14:38:53;3.22;;;2.42;;
36923;SDS011;22841;50.252;18.688;2023-09-19T14:41:20;3.53;;;2.35;;
36923;SDS011;22841;50.252;18.688;2023-09-19T14:43:48;3.15;;;2.20;;
36923;SDS011;22841;50.252;18.688;2023-09-19T14:46:16;4.30;;;2.10;;
36923;SDS011;22841;50.252;18.688;2023-09-19T14:48:44;4.30;;;2.03;;
36923;SDS011;22841;50.252;18.688;2023-09-19T14:51:12;4.03;;;2.00;;
36923;SDS011;22841;50.252;18.688;2023-09-19T14:53:39;6.18;;;1.63;;
36923;SDS011;22841;50.252;18.688;2023-09-19T14:56:07;7.65;;;1.85;;
36923;SDS011;22841;50.252;18.688;2023-09-19T14:58:35;2.22;;;1.85;;
36923;SDS011;22841;50.252;18.688;2023-09-19T15:01:11;5.13;;;2.00;;
36923;SDS011;22841;50.252;18.688;2023-09-19T15:03:41;5.88;;;2.10;;
36923;SDS011;22841;50.252;18.688;2023-09-19T15:06:08;5.38;;;2.00;;
36923;SDS011;22841;50.252;18.688;2023-09-19T15:08:37;5.07;;;2.25;;
36923;SDS011;22841;50.252;18.688;2023-09-19T15:11:09;6.97;;;2.20;;
36923;SDS011;22841;50.252;18.688;2023-09-19T15:13:36;4.93;;;1.90;;
36923;SDS011;22841;50.252;18.688;2023-09-19T15:16:03;3.63;;;1.90;;
36923;SDS011;22841;50.252;18.688;2023-09-19T15:18:36;4.85;;;2.05;;
36923;SDS011;22841;50.252;18.688;2023-09-19T15:21:04;10.90;;;1.95;;
36923;SDS011;22841;50.252;18.688;2023-09-19T15:23:31;2.35;;;1.70;;
36923;SDS011;22841;50.252;18.688;2023-09-19T15:26:02;7.57;;;1.55;;
36923;SDS011;22841;50.252;18.688;2023-09-19T15:28:29;2.15;;;1.65;;
36923;SDS011;22841;50.252;18.688;2023-09-19T15:31:00;2.88;;;1.70;;
36923;SDS011;22841;50.252;18.688;2023-09-19T15:33:31;2.30;;;1.80;;
36923;SDS011;22841;50.252;18.688;2023-09-19T15:36:08;2.05;;;1.58;;
36923;SDS011;22841;50.252;18.688;2023-09-19T15:41:40;2.50;;;1.80;;